createdAt,value
2023-02-03T00:03:58.738Z,4.57
2023-02-03T00:10:01.304Z,4.35
2023-02-03T00:16:03.769Z,5.38
2023-02-03T00:28:08.198Z,3.72
2023-02-03T00:34:10.932Z,4.25
2023-02-03T00:40:15.278Z,5.88
2023-02-03T00:52:19.819Z,4.07
2023-02-03T00:58:22.018Z,4.40
2023-02-03T01:04:24.469Z,3.72
2023-02-03T01:16:31.221Z,4.33
2023-02-03T01:22:33.372Z,4.32
2023-02-03T01:28:36.190Z,4.57
2023-02-03T01:34:38.533Z,3.97
2023-02-03T01:40:45.110Z,4.20
2023-02-03T01:46:51.300Z,3.92
2023-02-03T01:52:58.608Z,5.05
2023-02-03T01:59:01.267Z,4.78
2023-02-03T02:05:21.832Z,4.15
2023-02-03T02:11:24.393Z,4.88
2023-02-03T02:17:44.841Z,5.00
2023-02-03T02:24:04.301Z,5.22
2023-02-03T02:30:12.534Z,5.25
2023-02-03T02:36:18.675Z,4.88
2023-02-03T02:42:39.078Z,4.97
2023-02-03T02:48:54.945Z,4.28
2023-02-03T02:55:02.932Z,4.28
2023-02-03T03:01:09.280Z,4.75
2023-02-03T03:07:24.497Z,3.10
2023-02-03T03:13:34.624Z,4.75
2023-02-03T03:19:41.586Z,3.47
2023-02-03T03:25:49.617Z,3.70
2023-02-03T03:31:51.847Z,3.95
2023-02-03T03:44:06.273Z,3.83
2023-02-03T03:50:14.819Z,3.25
2023-02-03T03:56:25.037Z,4.53
2023-02-03T04:02:28.640Z,3.97
2023-02-03T04:08:30.755Z,4.70
2023-02-03T04:14:38.229Z,4.03
2023-02-03T04:20:40.748Z,4.35
2023-02-03T04:32:46.466Z,4.00
2023-02-03T04:38:52.246Z,4.85
2023-02-03T04:44:54.480Z,4.20
2023-02-03T04:51:01.075Z,5.15
2023-02-03T04:57:03.728Z,4.38
2023-02-03T05:03:06.036Z,4.45
2023-02-03T05:09:08.424Z,5.68
2023-02-03T05:15:10.869Z,4.68
2023-02-03T05:27:15.549Z,5.72
2023-02-03T05:39:19.908Z,4.80
2023-02-03T05:45:22.151Z,6.35
2023-02-03T05:51:25.460Z,7.65
2023-02-03T05:57:27.893Z,6.60
2023-02-03T06:03:30.186Z,6.63
2023-02-03T06:09:32.516Z,7.28
2023-02-03T06:15:35.264Z,5.65
2023-02-03T06:21:37.627Z,5.72
2023-02-03T06:33:42.138Z,8.90
2023-02-03T06:39:44.929Z,12.50
2023-02-03T06:45:47.745Z,10.13
2023-02-03T06:51:50.410Z,8.07
2023-02-03T06:57:52.655Z,7.85
2023-02-03T07:03:58.052Z,6.72
2023-02-03T07:10:01.449Z,9.73
2023-02-03T07:16:03.753Z,7.80
2023-02-03T07:22:06.187Z,9.18
2023-02-03T07:28:08.770Z,9.27
2023-02-03T07:40:14.385Z,8.05
2023-02-03T07:46:17.046Z,8.95
2023-02-03T07:52:21.759Z,8.88
2023-02-03T07:58:24.162Z,9.38
2023-02-03T08:04:30.018Z,9.23
2023-02-03T08:16:34.766Z,8.27
2023-02-03T08:28:38.952Z,13.82
2023-02-03T08:34:41.297Z,11.50
2023-02-03T08:40:43.860Z,9.70
2023-02-03T08:46:49.818Z,6.57
2023-02-03T08:52:52.317Z,9.25
2023-02-03T08:58:55.982Z,10.65
2023-02-03T09:04:58.517Z,8.88
2023-02-03T09:11:00.978Z,6.82
2023-02-03T09:17:04.897Z,8.35
2023-02-03T09:23:07.205Z,7.60
2023-02-03T09:29:09.821Z,14.63
2023-02-03T09:35:12.197Z,9.02
2023-02-03T09:41:34.515Z,9.07
2023-02-03T09:47:43.900Z,6.85
2023-02-03T09:53:51.814Z,7.78
2023-02-03T09:59:56.904Z,6.45
2023-02-03T10:06:14.341Z,5.43
2023-02-03T10:12:45.473Z,10.52
2023-02-03T10:18:54.964Z,12.63
2023-02-03T10:24:57.369Z,11.77
2023-02-03T10:31:02.003Z,11.60
2023-02-03T10:37:23.121Z,10.57
2023-02-03T10:43:44.316Z,10.55
2023-02-03T10:49:47.211Z,9.95
2023-02-03T10:56:03.036Z,14.25
2023-02-03T11:02:10.610Z,15.25
2023-02-03T11:08:16.630Z,12.05
2023-02-03T11:14:19.357Z,18.60
2023-02-03T11:26:44.018Z,7.83
2023-02-03T11:32:48.138Z,6.13
2023-02-03T11:38:50.613Z,5.97
2023-02-03T11:45:08.232Z,10.15
2023-02-03T11:51:22.653Z,4.05
2023-02-03T11:57:51.451Z,4.47
2023-02-03T12:04:18.472Z,6.82
2023-02-03T12:10:30.913Z,5.20
2023-02-03T12:16:56.276Z,2.50
2023-02-03T12:23:23.717Z,3.40
2023-02-03T12:29:39.058Z,3.08
2023-02-03T12:35:56.319Z,3.75
2023-02-03T12:42:05.117Z,5.30
2023-02-03T12:48:16.962Z,5.88
2023-02-03T12:54:34.002Z,4.38
2023-02-03T13:00:41.972Z,4.55
2023-02-03T13:07:02.750Z,4.30
2023-02-03T13:13:07.942Z,4.50
2023-02-03T13:19:21.589Z,3.70
2023-02-03T13:25:26.359Z,3.28
2023-02-03T13:31:43.605Z,4.55
2023-02-03T13:37:59.309Z,4.57
2023-02-03T13:44:02.259Z,3.75
2023-02-03T13:50:36.886Z,3.63
2023-02-03T13:56:39.860Z,3.83
2023-02-03T14:02:53.874Z,3.60
2023-02-03T14:09:00.160Z,2.35
2023-02-03T14:15:18.034Z,3.50
2023-02-03T14:21:23.884Z,5.10
2023-02-03T14:27:28.888Z,4.78
2023-02-03T14:33:49.045Z,4.75
2023-02-03T14:40:22.515Z,5.30
2023-02-03T14:46:59.432Z,5.90
2023-02-03T14:53:13.291Z,4.88
2023-02-03T14:59:16.010Z,8.43
2023-02-03T15:05:18.656Z,5.18
2023-02-03T15:11:29.882Z,5.00
2023-02-03T15:17:32.015Z,4.57
2023-02-03T15:23:43.486Z,6.97
2023-02-03T15:29:45.801Z,6.85
2023-02-03T15:35:55.875Z,6.10
2023-02-03T15:41:59.709Z,9.02
2023-02-03T15:48:01.995Z,5.47
2023-02-03T15:54:30.710Z,9.65
2023-02-03T16:00:39.421Z,8.50
2023-02-03T16:06:45.407Z,5.68
2023-02-03T16:12:47.601Z,6.85
2023-02-03T16:18:56.414Z,6.18
2023-02-03T16:25:12.836Z,6.15
2023-02-03T16:31:39.579Z,7.35
2023-02-03T16:38:04.089Z,9.65
2023-02-03T16:44:24.920Z,9.25
2023-02-03T16:50:46.788Z,6.97
2023-02-03T16:56:49.777Z,6.05
2023-02-03T17:02:52.275Z,6.78
2023-02-03T17:08:56.644Z,8.75
2023-02-03T17:15:00.378Z,7.47
2023-02-03T17:21:08.270Z,9.90
2023-02-03T17:27:10.522Z,7.22
2023-02-03T17:33:12.957Z,8.27
2023-02-03T17:58:04.308Z,9.13
2023-02-03T18:04:09.033Z,7.65
2023-02-03T18:10:11.784Z,6.80
2023-02-03T18:22:21.421Z,5.80
2023-02-03T18:28:24.071Z,6.60
2023-02-03T18:40:28.534Z,6.75
2023-02-03T18:46:32.845Z,6.05
2023-02-03T18:52:35.283Z,5.97
2023-02-03T18:58:38.273Z,5.82
2023-02-03T19:04:40.734Z,5.75
2023-02-03T19:16:45.015Z,5.10
2023-02-03T19:22:47.184Z,6.43
2023-02-03T19:28:49.518Z,6.45
2023-02-03T19:34:51.750Z,5.28
2023-02-03T19:40:54.029Z,5.30
2023-02-03T19:46:56.171Z,5.40
2023-02-03T19:52:58.269Z,5.03
2023-02-03T19:59:00.640Z,5.72
2023-02-03T20:05:02.850Z,6.13
2023-02-03T20:11:05.641Z,4.63
2023-02-03T20:17:08.149Z,5.50
2023-02-03T20:29:12.547Z,5.22
2023-02-03T20:35:15.118Z,5.72
2023-02-03T20:47:22.935Z,6.15
2023-02-03T20:53:26.635Z,6.07
2023-02-03T20:59:29.557Z,6.97
2023-02-03T21:05:42.365Z,6.47
2023-02-03T21:17:47.073Z,5.45
2023-02-03T21:23:49.251Z,5.10
2023-02-03T21:29:56.001Z,4.60
2023-02-03T21:35:58.439Z,6.60
2023-02-03T21:48:40.658Z,4.75
2023-02-03T21:54:44.566Z,5.57
2023-02-03T22:00:50.564Z,6.10
2023-02-03T22:06:54.638Z,5.32
2023-02-03T22:12:56.927Z,6.15
2023-02-03T22:18:59.314Z,6.60
2023-02-03T22:25:01.648Z,6.03
2023-02-03T22:31:05.442Z,5.65
2023-02-03T22:37:07.737Z,4.72
2023-02-03T22:43:10.070Z,5.00
2023-02-03T22:49:12.378Z,5.38
2023-02-03T22:55:14.702Z,5.03
2023-02-03T23:01:17.000Z,5.10
2023-02-03T23:07:19.552Z,5.18
2023-02-03T23:13:22.041Z,5.00
2023-02-03T23:19:25.199Z,4.18
2023-02-03T23:25:27.537Z,5.70
2023-02-03T23:31:30.186Z,6.20
2023-02-03T23:37:32.533Z,5.20
2023-02-03T23:43:34.883Z,8.05
2023-02-03T23:49:37.232Z,6.05
2023-02-03T23:55:39.661Z,6.00
